createdAt,value
2023-03-29T00:07:42.405Z,3
2023-03-29T00:18:20.657Z,3.84
2023-03-29T00:34:18.375Z,0.18
2023-03-29T00:44:56.790Z,0.56
2023-03-29T00:50:15.726Z,1.28
2023-03-29T01:00:54.861Z,1.98
2023-03-29T01:16:53.650Z,1.92
2023-03-29T01:32:51.165Z,2.56
2023-03-29T01:43:29.487Z,3.5
2023-03-29T01:59:27.425Z,3.88
2023-03-29T02:15:24.914Z,3.3
2023-03-29T02:26:03.918Z,2.35
2023-03-29T02:31:23.556Z,1.74
2023-03-29T02:42:02.364Z,1.74
2023-03-29T02:58:00.582Z,1.16
2023-03-29T03:13:58.193Z,3.46
2023-03-29T03:24:36.694Z,2.84
2023-03-29T03:40:34.439Z,2.66
2023-03-29T03:56:32.582Z,3.68
2023-03-29T04:17:48.617Z,2.46
2023-03-29T04:33:45.990Z,1.28
2023-03-29T04:44:24.125Z,0
2023-03-29T05:00:22.455Z,0.66
2023-03-29T05:16:20.416Z,0.9
2023-03-29T05:26:58.363Z,2.24
2023-03-29T05:32:17.903Z,2.14
2023-03-29T05:42:56.747Z,1.32
2023-03-29T05:58:55.060Z,1.72
2023-03-29T06:09:32.710Z,0.18
2023-03-29T06:14:51.505Z,0.42
2023-03-29T06:25:39.463Z,0.52
2023-03-29T06:41:28.797Z,0.34
2023-03-29T06:52:07.084Z,0
2023-03-29T06:57:26.875Z,0
2023-03-29T07:08:04.780Z,3.94
2023-03-29T07:24:02.286Z,3.26
2023-03-29T07:39:59.656Z,3.26
2023-03-29T07:50:37.877Z,6.56
2023-03-29T07:55:56.701Z,7.78
2023-03-29T08:06:35.702Z,4.19
2023-03-29T08:22:33.601Z,7.14
2023-03-29T08:33:12.468Z,9
2023-03-29T08:38:31.908Z,6.56
2023-03-29T08:49:10.178Z,5.1
2023-03-29T09:05:07.636Z,7.44
2023-03-29T09:21:05.441Z,3.12
2023-03-29T09:31:43.777Z,2.96
2023-03-29T09:47:41.572Z,4.23
2023-03-29T10:03:39.814Z,4.06
2023-03-29T10:14:19.330Z,4.88
2023-03-29T10:30:17.253Z,7.96
2023-03-29T10:56:55.497Z,5.96
2023-03-29T11:07:33.305Z,3.44
2023-03-29T11:23:31.006Z,5.42
2023-03-29T11:39:28.819Z,7.72
2023-03-29T11:50:07.815Z,4.3
2023-03-29T11:55:25.548Z,2.16
2023-03-29T12:06:04.225Z,8.82
2023-03-29T12:22:00.244Z,4.82
2023-03-29T12:32:38.970Z,3.38
2023-03-29T12:37:58.465Z,6.32
2023-03-29T12:48:36.993Z,7.28
2023-03-29T13:04:35.378Z,6.96
2023-03-29T13:20:32.051Z,6.28
2023-03-29T13:31:10.216Z,5.74
2023-03-29T13:36:30.202Z,5.68
2023-03-29T13:47:06.896Z,11.48
2023-03-29T14:03:03.488Z,6.78
2023-03-29T14:13:42.337Z,6.84
2023-03-29T14:19:01.167Z,9.06
2023-03-29T14:35:25.114Z,8.43
2023-03-29T14:46:03.112Z,5.54
2023-03-29T14:51:22.634Z,7.82
2023-03-29T15:02:00.814Z,4.84
2023-03-29T15:17:57.370Z,5
2023-03-29T15:28:35.680Z,7.28
2023-03-29T15:33:55.470Z,8
2023-03-29T15:44:34.072Z,4.42
2023-03-29T16:00:32.337Z,4.62
2023-03-29T16:16:29.838Z,5.18
2023-03-29T16:27:08.189Z,2.98
2023-03-29T16:43:06.574Z,5.18
2023-03-29T16:59:04.258Z,1.82
2023-03-29T17:15:02.122Z,2.06
2023-03-29T17:25:40.095Z,1.68
2023-03-29T17:36:18.622Z,2.11
2023-03-29T17:52:16.634Z,0.86
2023-03-29T18:02:54.605Z,0.92
2023-03-29T18:18:51.887Z,1.92
2023-03-29T18:34:49.352Z,0.76
2023-03-29T18:45:27.664Z,1.16
2023-03-29T18:50:46.594Z,1.05
2023-03-29T19:01:25.492Z,0.9
2023-03-29T19:12:04.192Z,1.82
2023-03-29T19:17:23.718Z,2.11
2023-03-29T19:28:01.442Z,1.36
2023-03-29T19:33:20.616Z,1.44
2023-03-29T19:43:58.508Z,1.4
2023-03-29T19:59:55.897Z,0
2023-03-29T20:15:53.439Z,0.64
2023-03-29T20:26:32.215Z,0
2023-03-29T20:31:51.367Z,0.64
2023-03-29T20:42:30.221Z,0.96
2023-03-29T20:53:08.572Z,0
2023-03-29T20:58:28.195Z,0.94
2023-03-29T21:09:07.279Z,1.86
2023-03-29T21:14:26.345Z,1.48
2023-03-29T21:25:05.348Z,0.58
2023-03-29T21:41:03.093Z,0.5
2023-03-29T21:51:41.430Z,1.42
2023-03-29T22:07:38.715Z,1.96
2023-03-29T22:23:35.515Z,1.6
2023-03-29T22:34:14.256Z,2.2
2023-03-29T22:39:33.425Z,0.8
2023-03-29T22:50:11.680Z,0.84
2023-03-29T23:06:10.259Z,3.28
2023-03-29T23:22:08.820Z,1.08
2023-03-29T23:32:47.869Z,5.7
2023-03-29T23:48:43.884Z,5.02
2023-03-29T23:59:22.640Z,2.3
